createdAt,value
2023-10-12T00:00:54.247Z,100169.75
2023-10-12T00:03:26.309Z,100178.44
2023-10-12T00:05:57.799Z,100177.50
2023-10-12T00:08:33.012Z,100186.38
2023-10-12T00:11:07.872Z,100199.72
2023-10-12T00:13:43.565Z,100180.28
2023-10-12T00:16:19.633Z,100179.44
2023-10-12T00:18:51.058Z,100158.59
2023-10-12T00:21:26.823Z,100171.75
2023-10-12T00:23:58.474Z,100162.25
2023-10-12T00:26:32.364Z,100184.16
2023-10-12T00:29:07.556Z,100184.72
2023-10-12T00:31:40.706Z,100209.38
2023-10-12T00:34:15.527Z,100197.88
2023-10-12T00:36:47.034Z,100195.75
2023-10-12T00:39:21.338Z,100187.78
2023-10-12T00:41:55.384Z,100205.66
2023-10-12T00:44:30.265Z,100185.16
2023-10-12T00:47:11.067Z,100180.16
2023-10-12T00:49:49.952Z,100204.03
2023-10-12T00:52:36.285Z,100192.06
2023-10-12T00:55:22.929Z,100210.78
2023-10-12T00:57:54.346Z,100209.84
2023-10-12T01:00:27.922Z,100173.25
2023-10-12T01:03:10.736Z,100203.69
2023-10-12T01:05:43.103Z,100209.78
2023-10-12T01:08:20.083Z,100211.47
2023-10-12T01:10:51.419Z,100222.94
2023-10-12T01:13:22.750Z,100225.78
2023-10-12T01:15:57.194Z,100229.44
2023-10-12T01:18:29.619Z,100198.91
2023-10-12T01:21:04.927Z,100218.72
2023-10-12T01:23:36.704Z,100218.53
2023-10-12T01:26:11.859Z,100225.50
2023-10-12T01:28:46.847Z,100200.34
2023-10-12T01:31:27.989Z,100216.78
2023-10-12T01:34:01.030Z,100205.72
2023-10-12T01:36:33.951Z,100197.19
2023-10-12T01:39:12.146Z,100219.75
2023-10-12T01:41:44.060Z,100232.09
2023-10-12T01:44:17.119Z,100213.56
2023-10-12T01:46:50.848Z,100228.22
2023-10-12T01:49:22.268Z,100212.84
2023-10-12T01:51:53.742Z,100234.06
2023-10-12T01:54:25.936Z,100237.53
2023-10-12T01:56:57.363Z,100218.44
2023-10-12T01:59:28.702Z,100229.09
2023-10-12T02:02:14.932Z,100257.31
2023-10-12T02:04:47.138Z,100248.56
2023-10-12T02:07:18.490Z,100229.22
2023-10-12T02:09:51.102Z,100252.03
2023-10-12T02:12:26.761Z,100222.97
2023-10-12T02:14:59.381Z,100239.75
2023-10-12T02:17:30.866Z,100263.19
2023-10-12T02:20:02.306Z,100271.19
2023-10-12T02:22:36.551Z,100254.66
2023-10-12T02:25:17.546Z,100258.91
2023-10-12T02:27:59.942Z,100249.22
2023-10-12T02:30:31.368Z,100266.63
2023-10-12T02:33:07.876Z,100270.13
2023-10-12T02:35:45.310Z,100275.41
2023-10-12T02:38:17.063Z,100276.94
2023-10-12T02:40:58.629Z,100267.25
2023-10-12T02:43:33.207Z,100263.66
2023-10-12T02:46:07.661Z,100262.78
2023-10-12T02:48:39.991Z,100250.69
2023-10-12T02:51:15.666Z,100274.97
2023-10-12T02:53:48.801Z,100251.56
2023-10-12T02:56:26.041Z,100250.75
2023-10-12T02:59:02.233Z,100293.63
2023-10-12T03:01:33.518Z,100299.13
2023-10-12T03:04:06.962Z,100273.13
2023-10-12T03:06:55.590Z,100302.06
2023-10-12T03:09:37.720Z,100299.88
2023-10-12T03:12:11.183Z,100311.03
2023-10-12T03:14:42.527Z,100313.81
2023-10-12T03:17:17.454Z,100306.91
2023-10-12T03:19:59.778Z,100293.13
2023-10-12T03:22:35.456Z,100299.16
2023-10-12T03:25:20.721Z,100307.88
2023-10-12T03:27:54.650Z,100318.59
2023-10-12T03:30:35.745Z,100294.06
2023-10-12T03:33:12.243Z,100307.06
2023-10-12T03:36:01.899Z,100279.34
2023-10-12T03:38:36.173Z,100282.78
2023-10-12T03:41:25.572Z,100309.81
2023-10-12T03:44:12.134Z,100295.19
2023-10-12T03:46:47.283Z,100312.75
2023-10-12T03:49:32.887Z,100321.03
2023-10-12T03:52:14.587Z,100298.44
2023-10-12T03:55:17.951Z,100322.78
2023-10-12T03:58:01.516Z,100294.97
2023-10-12T04:00:37.434Z,100295.16
2023-10-12T04:03:19.451Z,100334.56
2023-10-12T04:05:56.712Z,100323.03
2023-10-12T04:08:28.293Z,100320.56
2023-10-12T04:11:01.273Z,100322.31
2023-10-12T04:13:32.741Z,100311.19
2023-10-12T04:16:11.083Z,100318.69
2023-10-12T04:19:04.103Z,100316.78
2023-10-12T04:21:37.239Z,100328.41
2023-10-12T04:24:14.911Z,100338.19
2023-10-12T04:27:06.207Z,100338.22
2023-10-12T04:29:40.091Z,100342.69
2023-10-12T04:32:16.676Z,100309.53
2023-10-12T04:34:51.064Z,100347.16
2023-10-12T04:37:28.347Z,100347.34
2023-10-12T04:40:10.664Z,100358.84
2023-10-12T04:42:46.376Z,100338.03
2023-10-12T04:45:25.012Z,100353.69
2023-10-12T04:48:09.004Z,100366.84
2023-10-12T04:50:45.371Z,100385.47
2023-10-12T04:53:17.430Z,100374.25
2023-10-12T04:55:48.906Z,100372.34
2023-10-12T04:58:26.307Z,100355.88
2023-10-12T05:01:13.933Z,100392.75
2023-10-12T05:04:05.459Z,100372.88
2023-10-12T05:06:48.444Z,100391.13
2023-10-12T05:09:19.833Z,100393.25
2023-10-12T05:11:51.161Z,100407.25
2023-10-12T05:14:23.725Z,100369.84
2023-10-12T05:16:55.190Z,100386.25
2023-10-12T05:19:27.979Z,100398.53
2023-10-12T05:22:00.033Z,100400.31
2023-10-12T05:24:33.582Z,100354.94
2023-10-12T05:27:20.831Z,100373.25
2023-10-12T05:30:00.505Z,100388.38
2023-10-12T05:32:58.065Z,100391.78
2023-10-12T05:35:48.459Z,100391.91
2023-10-12T05:38:19.772Z,100409.47
2023-10-12T05:40:56.720Z,100408.66
2023-10-12T05:43:32.436Z,100408.75
2023-10-12T05:46:17.126Z,100395.94
2023-10-12T05:48:52.602Z,100425.72
2023-10-12T05:51:24.942Z,100432.88
2023-10-12T05:54:07.767Z,100420.53
2023-10-12T05:56:39.105Z,100439.06
2023-10-12T05:59:13.491Z,100425.16
2023-10-12T06:01:47.390Z,100437.41
2023-10-12T06:04:23.732Z,100443.59
2023-10-12T06:06:56.177Z,100445.59
2023-10-12T06:09:36.836Z,100477.09
2023-10-12T06:12:09.461Z,100463.00
2023-10-12T06:14:54.223Z,100476.91
2023-10-12T06:17:32.412Z,100482.19
2023-10-12T06:20:16.033Z,100489.28
2023-10-12T06:22:48.257Z,100459.69
2023-10-12T06:25:20.024Z,100496.38
2023-10-12T06:27:51.415Z,100500.88
2023-10-12T06:30:25.051Z,100484.38
2023-10-12T06:33:00.654Z,100507.16
2023-10-12T06:35:35.130Z,100516.78
2023-10-12T06:38:24.934Z,100529.19
2023-10-12T06:41:22.576Z,100524.72
2023-10-12T06:43:58.795Z,100524.91
2023-10-12T06:46:37.029Z,100530.94
2023-10-12T06:49:13.050Z,100524.91
2023-10-12T06:51:44.657Z,100543.31
2023-10-12T06:54:20.419Z,100548.56
2023-10-12T06:56:52.769Z,100508.22
2023-10-12T06:59:29.922Z,100542.06
2023-10-12T07:02:10.970Z,100545.53
2023-10-12T07:04:55.333Z,100534.22
2023-10-12T07:07:29.320Z,100514.13
2023-10-12T07:10:12.850Z,100555.28
2023-10-12T07:12:48.718Z,100522.56
2023-10-12T07:15:23.000Z,100552.38
2023-10-12T07:17:54.986Z,100547.91
2023-10-12T07:20:47.455Z,100545.47
2023-10-12T07:23:35.057Z,100554.25
2023-10-12T07:26:14.134Z,100555.03
2023-10-12T07:28:50.589Z,100563.97
2023-10-12T07:31:32.068Z,100542.31
2023-10-12T07:34:08.804Z,100548.50
2023-10-12T07:36:43.734Z,100574.13
2023-10-12T07:39:21.998Z,100571.69
2023-10-12T07:41:57.474Z,100580.38
2023-10-12T07:45:00.209Z,100579.34
2023-10-12T07:47:41.639Z,100587.16
2023-10-12T07:50:15.808Z,100534.34
2023-10-12T07:52:50.058Z,100584.63
2023-10-12T07:55:23.010Z,100548.50
2023-10-12T07:57:54.351Z,100593.50
2023-10-12T08:00:28.344Z,100577.19
2023-10-12T08:02:59.692Z,100592.38
2023-10-12T08:05:44.448Z,100577.91
2023-10-12T08:08:32.576Z,100610.94
2023-10-12T08:11:11.024Z,100614.09
2023-10-12T08:13:49.227Z,100602.78
2023-10-12T08:16:27.272Z,100627.19
2023-10-12T08:18:59.035Z,100630.41
2023-10-12T08:21:30.439Z,100640.13
2023-10-12T08:24:10.687Z,100640.13
2023-10-12T08:26:43.561Z,100630.22
2023-10-12T08:29:25.174Z,100625.75
2023-10-12T08:32:09.982Z,100657.84
2023-10-12T08:35:04.101Z,100662.78
2023-10-12T08:37:50.425Z,100645.16
2023-10-12T08:40:23.481Z,100627.06
2023-10-12T08:42:59.761Z,100656.81
2023-10-12T08:45:31.464Z,100659.09
2023-10-12T08:48:03.459Z,100658.94
2023-10-12T08:50:48.890Z,100654.25
2023-10-12T08:53:21.870Z,100654.72
2023-10-12T08:55:53.348Z,100640.84
2023-10-12T08:58:40.577Z,100647.31
2023-10-12T09:01:21.154Z,100670.03
2023-10-12T09:04:02.036Z,100657.50
2023-10-12T09:06:36.615Z,100681.19
2023-10-12T09:09:08.099Z,100679.53
2023-10-12T09:11:39.739Z,100688.72
2023-10-12T09:14:16.457Z,100685.97
2023-10-12T09:16:55.163Z,100676.19
2023-10-12T09:19:33.053Z,100668.94
2023-10-12T09:22:05.653Z,100674.09
2023-10-12T09:24:37.973Z,100670.63
2023-10-12T09:27:14.428Z,100678.59
2023-10-12T09:30:02.326Z,100690.78
2023-10-12T09:32:36.368Z,100688.78
2023-10-12T09:35:12.419Z,100688.91
2023-10-12T09:37:52.276Z,100690.28
2023-10-12T09:40:28.979Z,100708.06
2023-10-12T09:43:04.000Z,100715.09
2023-10-12T09:45:42.843Z,100713.56
2023-10-12T09:48:25.865Z,100715.38
2023-10-12T09:50:57.667Z,100713.06
2023-10-12T09:53:59.163Z,100723.81
2023-10-12T09:56:48.212Z,100703.47
2023-10-12T09:59:20.744Z,100720.75
2023-10-12T10:01:52.431Z,100718.31
2023-10-12T10:04:27.162Z,100721.53
2023-10-12T10:07:10.684Z,100735.22
2023-10-12T10:09:53.947Z,100733.78
2023-10-12T10:12:28.529Z,100728.00
2023-10-12T10:15:11.287Z,100740.72
2023-10-12T10:17:49.244Z,100737.19
2023-10-12T10:20:28.514Z,100735.84
2023-10-12T10:23:04.608Z,100739.63
2023-10-12T10:25:44.082Z,100732.34
2023-10-12T10:28:26.463Z,100728.88
2023-10-12T10:31:00.588Z,100734.16
2023-10-12T10:33:38.247Z,100725.13
2023-10-12T10:36:25.382Z,100717.34
2023-10-12T10:38:56.851Z,100728.47
2023-10-12T10:41:47.395Z,100712.78
2023-10-12T10:44:23.437Z,100712.91
2023-10-12T10:47:01.475Z,100710.44
2023-10-12T10:49:34.895Z,100720.09
2023-10-12T10:52:07.128Z,100728.31
2023-10-12T10:54:39.341Z,100721.22
2023-10-12T10:57:18.501Z,100704.63
2023-10-12T10:59:50.639Z,100709.75
2023-10-12T11:02:22.520Z,100708.38
2023-10-12T11:04:58.618Z,100705.47
2023-10-12T11:07:29.982Z,100714.00
2023-10-12T11:10:01.330Z,100710.72
2023-10-12T11:12:37.704Z,100702.06
2023-10-12T11:15:10.823Z,100721.16
2023-10-12T11:17:57.229Z,100709.16
2023-10-12T11:20:39.867Z,100715.25
2023-10-12T11:23:12.233Z,100712.38
2023-10-12T11:25:43.822Z,100708.59
2023-10-12T11:28:27.489Z,100714.06
2023-10-12T11:31:08.532Z,100705.38
2023-10-12T11:33:49.748Z,100710.97
2023-10-12T11:36:25.026Z,100711.41
2023-10-12T11:39:05.373Z,100718.75
2023-10-12T11:41:37.110Z,100719.97
2023-10-12T11:44:08.931Z,100714.16
2023-10-12T11:46:46.714Z,100719.16
2023-10-12T11:49:18.103Z,100728.09
2023-10-12T11:51:52.826Z,100734.63
2023-10-12T11:54:33.974Z,100724.53
2023-10-12T11:57:07.906Z,100721.97
2023-10-12T11:59:39.215Z,100731.78
2023-10-12T12:02:17.177Z,100713.88
2023-10-12T12:05:01.903Z,100733.59
2023-10-12T12:07:39.312Z,100738.16
2023-10-12T12:10:16.165Z,100704.84
2023-10-12T12:12:48.782Z,100717.06
2023-10-12T12:15:20.266Z,100734.44
2023-10-12T12:17:54.701Z,100720.63
2023-10-12T12:20:26.372Z,100724.84
2023-10-12T12:23:04.981Z,100731.75
2023-10-12T12:25:40.066Z,100711.66
2023-10-12T12:28:15.871Z,100707.47
2023-10-12T12:30:59.993Z,100708.56
2023-10-12T12:33:31.732Z,100703.34
2023-10-12T12:36:08.808Z,100711.13
2023-10-12T12:38:41.308Z,100685.50
2023-10-12T12:41:24.841Z,100706.50
2023-10-12T12:44:00.240Z,100709.78
2023-10-12T12:46:32.143Z,100694.69
2023-10-12T12:49:04.213Z,100705.66
2023-10-12T12:51:35.935Z,100710.69
2023-10-12T12:54:07.284Z,100694.00
2023-10-12T12:56:38.603Z,100693.34
2023-10-12T12:59:11.594Z,100708.00
2023-10-12T13:01:46.935Z,100709.13
2023-10-12T13:04:21.303Z,100712.25
2023-10-12T13:07:05.172Z,100705.16
2023-10-12T13:09:37.327Z,100701.97
2023-10-12T13:12:08.651Z,100690.94
2023-10-12T13:14:43.461Z,100712.56
2023-10-12T13:17:17.210Z,100681.50
2023-10-12T13:19:51.139Z,100704.00
2023-10-12T13:22:22.545Z,100704.00
2023-10-12T13:24:58.066Z,100712.13
2023-10-12T13:27:30.448Z,100707.78
2023-10-12T13:30:10.351Z,100692.91
2023-10-12T13:32:48.588Z,100676.94
2023-10-12T13:35:29.764Z,100703.72
2023-10-12T13:38:06.353Z,100682.53
2023-10-12T13:40:43.257Z,100701.81
2023-10-12T13:43:23.126Z,100692.59
2023-10-12T13:45:58.176Z,100699.50
2023-10-12T13:48:29.984Z,100688.13
2023-10-12T13:51:22.505Z,100689.41
2023-10-12T13:53:54.452Z,100677.78
2023-10-12T13:56:25.952Z,100685.81
2023-10-12T13:58:59.474Z,100690.44
2023-10-12T14:01:37.393Z,100687.44
2023-10-12T14:04:27.439Z,100685.63
2023-10-12T14:07:02.595Z,100686.34
2023-10-12T14:09:34.538Z,100683.00
2023-10-12T14:12:06.864Z,100657.94
2023-10-12T14:14:38.245Z,100676.66
2023-10-12T14:17:09.840Z,100663.34
2023-10-12T14:19:41.352Z,100674.00
2023-10-12T14:22:12.856Z,100640.31
2023-10-12T14:24:48.141Z,100676.13
2023-10-12T14:27:22.498Z,100666.13
2023-10-12T14:29:54.026Z,100662.06
2023-10-12T14:32:26.761Z,100677.88
2023-10-12T14:34:58.199Z,100679.84
2023-10-12T14:37:29.618Z,100675.81
2023-10-12T14:40:05.188Z,100659.25
2023-10-12T14:42:37.813Z,100674.41
2023-10-12T14:45:16.965Z,100674.63
2023-10-12T14:47:48.490Z,100685.34
2023-10-12T14:50:21.630Z,100679.53
2023-10-12T14:52:54.843Z,100690.41
2023-10-12T14:55:26.242Z,100684.53
2023-10-12T14:57:57.597Z,100662.31
2023-10-12T15:00:29.901Z,100662.72
2023-10-12T15:03:01.237Z,100675.25
2023-10-12T15:05:33.726Z,100679.09
2023-10-12T15:08:08.789Z,100671.38
2023-10-12T15:10:47.267Z,100670.91
2023-10-12T15:13:18.642Z,100675.66
2023-10-12T15:15:51.036Z,100679.53
2023-10-12T15:18:26.222Z,100673.72
2023-10-12T15:21:08.236Z,100670.34
2023-10-12T15:23:49.045Z,100668.88
2023-10-12T15:26:20.739Z,100648.97
2023-10-12T15:28:52.758Z,100644.81
2023-10-12T15:31:28.953Z,100659.00
2023-10-12T15:34:01.226Z,100645.44
2023-10-12T15:36:32.748Z,100655.09
2023-10-12T15:39:15.966Z,100668.66
2023-10-12T15:41:49.791Z,100639.91
2023-10-12T15:44:21.657Z,100655.72
2023-10-12T15:46:55.177Z,100652.41
2023-10-12T15:49:26.589Z,100664.16
2023-10-12T15:51:58.477Z,100662.78
2023-10-12T15:54:30.011Z,100670.13
2023-10-12T15:57:01.408Z,100653.78
2023-10-12T15:59:34.313Z,100657.41
2023-10-12T16:02:08.959Z,100662.06
2023-10-12T16:04:46.224Z,100668.41
2023-10-12T16:07:20.289Z,100672.94
2023-10-12T16:09:51.605Z,100672.00
2023-10-12T16:12:23.025Z,100664.78
2023-10-12T16:14:55.638Z,100643.69
2023-10-12T16:17:27.131Z,100657.81
2023-10-12T16:19:58.534Z,100664.28
2023-10-12T16:22:30.471Z,100657.47
2023-10-12T16:25:08.249Z,100657.69
2023-10-12T16:27:41.021Z,100656.28
2023-10-12T16:30:17.727Z,100646.97
2023-10-12T16:32:50.555Z,100645.63
2023-10-12T16:35:26.646Z,100649.59
2023-10-12T16:38:00.110Z,100647.16
2023-10-12T16:40:31.620Z,100650.97
2023-10-12T16:43:06.489Z,100633.94
2023-10-12T16:45:37.921Z,100667.34
2023-10-12T16:48:09.897Z,100631.59
2023-10-12T16:50:44.382Z,100654.47
2023-10-12T16:53:17.234Z,100652.50
2023-10-12T16:55:49.198Z,100630.56
2023-10-12T16:58:21.906Z,100644.44
2023-10-12T17:00:57.454Z,100633.78
2023-10-12T17:03:31.035Z,100629.31
2023-10-12T17:06:07.084Z,100615.38
2023-10-12T17:08:42.098Z,100646.31
2023-10-12T17:11:13.629Z,100645.44
2023-10-12T17:13:44.966Z,100636.63
2023-10-12T17:16:16.344Z,100644.72
2023-10-12T17:18:48.753Z,100632.41
2023-10-12T17:21:22.532Z,100629.94
2023-10-12T17:23:55.255Z,100637.13
2023-10-12T17:26:27.312Z,100615.63
2023-10-12T17:28:58.857Z,100633.53
2023-10-12T17:31:30.458Z,100635.69
2023-10-12T17:34:04.307Z,100621.13
2023-10-12T17:36:36.014Z,100612.69
2023-10-12T17:39:18.970Z,100626.91
2023-10-12T17:41:52.272Z,100608.84
2023-10-12T17:44:24.893Z,100608.28
2023-10-12T17:46:56.760Z,100625.09
2023-10-12T17:49:29.557Z,100627.09
2023-10-12T17:52:04.239Z,100630.47
2023-10-12T17:54:35.747Z,100635.72
2023-10-12T17:57:07.092Z,100637.16
2023-10-12T17:59:39.715Z,100632.41
2023-10-12T18:02:11.248Z,100638.28
2023-10-12T18:04:46.989Z,100637.19
2023-10-12T18:07:19.253Z,100620.56
2023-10-12T18:09:50.747Z,100644.13
2023-10-12T18:12:23.650Z,100623.94
2023-10-12T18:14:54.986Z,100644.94
2023-10-12T18:17:26.516Z,100656.53
2023-10-12T18:19:57.985Z,100657.50
2023-10-12T18:22:29.316Z,100643.41
2023-10-12T18:25:00.683Z,100639.84
2023-10-12T18:27:32.018Z,100658.03
2023-10-12T18:30:06.177Z,100644.91
2023-10-12T18:32:37.673Z,100658.75
2023-10-12T18:35:12.007Z,100667.59
2023-10-12T18:37:43.405Z,100665.75
2023-10-12T18:40:16.006Z,100662.97
2023-10-12T18:42:47.434Z,100642.84
2023-10-12T18:45:20.789Z,100669.16
2023-10-12T18:47:56.298Z,100671.63
2023-10-12T18:50:29.306Z,100655.81
2023-10-12T18:53:00.707Z,100678.53
2023-10-12T18:55:34.200Z,100676.91
2023-10-12T18:58:05.589Z,100671.09
2023-10-12T19:00:36.908Z,100684.22
2023-10-12T19:03:09.578Z,100690.59
2023-10-12T19:05:42.452Z,100683.59
2023-10-12T19:08:15.650Z,100693.41
2023-10-12T19:10:48.161Z,100659.25
2023-10-12T19:13:23.996Z,100690.97
2023-10-12T19:15:57.206Z,100672.69
2023-10-12T19:18:33.767Z,100699.94
2023-10-12T19:21:05.178Z,100685.97
2023-10-12T19:23:36.640Z,100700.84
2023-10-12T19:26:09.169Z,100697.28
2023-10-12T19:28:41.101Z,100696.34
2023-10-12T19:31:13.574Z,100680.59
2023-10-12T19:33:47.129Z,100682.38
2023-10-12T19:36:18.563Z,100692.06
2023-10-12T19:38:50.843Z,100679.75
2023-10-12T19:41:22.264Z,100679.75
2023-10-12T19:43:54.549Z,100678.25
2023-10-12T19:46:27.925Z,100669.28
2023-10-12T19:48:59.440Z,100651.94
2023-10-12T19:51:32.788Z,100662.44
2023-10-12T19:54:04.565Z,100672.09
2023-10-12T19:56:35.982Z,100672.09
2023-10-12T19:59:07.615Z,100664.13
2023-10-12T20:01:44.335Z,100667.63
2023-10-12T20:04:22.156Z,100664.09
2023-10-12T20:06:55.214Z,100658.81
2023-10-12T20:09:29.666Z,100655.31
2023-10-12T20:12:01.148Z,100649.50
2023-10-12T20:14:36.171Z,100643.50
2023-10-12T20:17:10.477Z,100634.81
2023-10-12T20:19:42.005Z,100658.38
2023-10-12T20:22:13.362Z,100668.25
2023-10-12T20:24:44.710Z,100654.25
2023-10-12T20:27:16.276Z,100663.66
2023-10-12T20:29:47.721Z,100665.41
2023-10-12T20:32:19.038Z,100657.56
2023-10-12T20:34:50.416Z,100652.22
2023-10-12T20:37:22.809Z,100646.84
2023-10-12T20:39:54.235Z,100639.69
2023-10-12T20:42:25.800Z,100638.75
2023-10-12T20:44:57.115Z,100610.69
2023-10-12T20:47:28.596Z,100635.41
2023-10-12T20:50:00.566Z,100630.94
2023-10-12T20:52:32.183Z,100591.47
2023-10-12T20:55:09.466Z,100607.13
2023-10-12T20:57:45.268Z,100619.31
2023-10-12T21:00:17.581Z,100587.63
2023-10-12T21:02:48.953Z,100582.28
2023-10-12T21:05:27.670Z,100588.59
2023-10-12T21:07:59.090Z,100592.75
2023-10-12T21:10:30.454Z,100587.50
2023-10-12T21:13:15.363Z,100588.25
2023-10-12T21:15:54.525Z,100570.66
2023-10-12T21:18:35.251Z,100588.97
2023-10-12T21:21:26.976Z,100576.47
2023-10-12T21:24:13.639Z,100588.00
2023-10-12T21:26:50.063Z,100581.81
2023-10-12T21:29:23.195Z,100576.38
2023-10-12T21:32:04.273Z,100569.25
2023-10-12T21:34:36.004Z,100568.53
2023-10-12T21:37:07.542Z,100557.28
2023-10-12T21:39:47.085Z,100552.81
2023-10-12T21:42:19.832Z,100545.84
2023-10-12T21:44:56.148Z,100555.34
2023-10-12T21:47:28.241Z,100526.47
2023-10-12T21:49:59.609Z,100531.69
2023-10-12T21:52:30.954Z,100533.47
2023-10-12T21:55:02.450Z,100531.78
2023-10-12T21:57:33.852Z,100525.78
2023-10-12T22:00:09.329Z,100539.72
2023-10-12T22:02:40.919Z,100545.78
2023-10-12T22:05:14.603Z,100550.25
2023-10-12T22:07:46.057Z,100541.56
2023-10-12T22:10:20.468Z,100517.06
2023-10-12T22:12:58.016Z,100512.63
2023-10-12T22:15:33.758Z,100512.50
2023-10-12T22:18:06.805Z,100485.16
2023-10-12T22:20:38.341Z,100514.63
2023-10-12T22:23:09.666Z,100498.84
2023-10-12T22:25:41.023Z,100493.50
2023-10-12T22:28:13.017Z,100511.97
2023-10-12T22:30:46.361Z,100512.84
2023-10-12T22:33:19.470Z,100507.47
2023-10-12T22:36:01.205Z,100497.91
2023-10-12T22:38:33.035Z,100497.88
2023-10-12T22:41:05.761Z,100497.78
2023-10-12T22:43:37.435Z,100518.91
2023-10-12T22:46:08.960Z,100499.56
2023-10-12T22:48:41.853Z,100515.22
2023-10-12T22:51:14.757Z,100487.88
2023-10-12T22:53:46.105Z,100495.69
2023-10-12T22:56:17.500Z,100498.25
2023-10-12T22:58:49.103Z,100497.31
2023-10-12T23:01:20.481Z,100478.00
2023-10-12T23:03:52.385Z,100471.06
2023-10-12T23:06:23.784Z,100469.38
2023-10-12T23:08:55.131Z,100491.94
2023-10-12T23:11:34.901Z,100478.75
2023-10-12T23:14:12.941Z,100498.66
2023-10-12T23:16:52.126Z,100492.47
2023-10-12T23:19:45.072Z,100499.28
2023-10-12T23:22:28.744Z,100488.53
2023-10-12T23:25:01.686Z,100489.34
2023-10-12T23:27:34.408Z,100480.66
2023-10-12T23:30:18.557Z,100465.59
2023-10-12T23:32:51.673Z,100479.31
2023-10-12T23:35:47.895Z,100464.34
2023-10-12T23:38:36.479Z,100457.00
2023-10-12T23:41:10.985Z,100460.34
2023-10-12T23:44:01.147Z,100464.75
2023-10-12T23:46:34.931Z,100466.44
2023-10-12T23:49:06.361Z,100477.00
2023-10-12T23:51:38.581Z,100467.16
2023-10-12T23:54:20.018Z,100471.50
2023-10-12T23:57:03.427Z,100459.91
2023-10-12T23:59:34.743Z,100466.75
